createdAt,value
2023-04-02T00:00:36.508Z,98.70
2023-04-02T00:03:10.495Z,98.60
2023-04-02T00:05:50.397Z,98.60
2023-04-02T00:08:39.070Z,98.80
2023-04-02T00:11:06.768Z,98.70
2023-04-02T00:13:36.939Z,98.90
2023-04-02T00:16:06.894Z,98.90
2023-04-02T00:18:36.887Z,98.80
2023-04-02T00:21:24.361Z,98.80
2023-04-02T00:23:53.394Z,98.90
2023-04-02T00:26:31.711Z,98.90
2023-04-02T00:29:00.969Z,98.90
2023-04-02T00:31:28.009Z,98.90
2023-04-02T00:33:55.940Z,98.90
2023-04-02T00:36:24.951Z,99.10
2023-04-02T00:38:53.364Z,99.10
2023-04-02T00:41:24.648Z,99.00
2023-04-02T00:43:52.553Z,99.10
2023-04-02T00:46:24.311Z,99.30
2023-04-02T00:48:59.775Z,99.30
2023-04-02T00:51:32.663Z,99.30
2023-04-02T00:54:04.536Z,99.50
2023-04-02T00:56:42.483Z,99.50
2023-04-02T00:59:18.187Z,99.40
2023-04-02T01:01:45.154Z,99.50
2023-04-02T01:04:34.170Z,99.30
2023-04-02T01:07:05.203Z,99.10
2023-04-02T01:09:44.155Z,98.60
2023-04-02T01:12:43.935Z,99.20
2023-04-02T01:15:13.953Z,99.30
2023-04-02T01:17:54.523Z,99.40
2023-04-02T01:20:43.405Z,99.40
2023-04-02T01:23:39.742Z,99.50
2023-04-02T01:26:25.986Z,99.60
2023-04-02T01:29:03.204Z,99.70
2023-04-02T01:31:33.167Z,99.80
2023-04-02T01:34:02.176Z,99.60
2023-04-02T01:36:36.941Z,99.50
2023-04-02T01:39:12.329Z,99.60
2023-04-02T01:41:53.564Z,99.60
2023-04-02T01:44:42.939Z,99.60
2023-04-02T01:47:17.132Z,99.70
2023-04-02T01:49:45.957Z,99.80
2023-04-02T01:52:19.197Z,99.60
2023-04-02T01:54:47.872Z,99.60
2023-04-02T01:57:15.861Z,99.80
2023-04-02T01:59:43.065Z,99.90
2023-04-02T02:02:13.423Z,99.90
2023-04-02T02:04:41.191Z,99.90
2023-04-02T02:07:16.624Z,99.90
2023-04-02T02:09:44.246Z,99.90
2023-04-02T02:12:14.091Z,99.90
2023-04-02T02:14:49.617Z,99.90
2023-04-02T02:17:19.772Z,99.90
2023-04-02T02:19:51.605Z,99.90
2023-04-02T02:22:30.754Z,99.90
2023-04-02T02:25:05.292Z,99.90
2023-04-02T02:27:32.149Z,99.90
2023-04-02T02:30:13.076Z,99.90
2023-04-02T02:32:51.019Z,99.90
2023-04-02T02:35:41.102Z,99.90
2023-04-02T02:38:43.078Z,99.90
2023-04-02T02:41:37.019Z,99.90
2023-04-02T02:44:06.902Z,99.90
2023-04-02T02:46:35.896Z,99.90
2023-04-02T02:49:04.827Z,99.90
2023-04-02T02:52:06.521Z,99.90
2023-04-02T02:54:34.518Z,99.90
2023-04-02T02:57:06.261Z,99.90
2023-04-02T02:59:33.473Z,99.90
2023-04-02T03:02:02.349Z,99.90
2023-04-02T03:04:35.649Z,99.90
2023-04-02T03:07:05.953Z,99.90
2023-04-02T03:09:59.275Z,99.90
2023-04-02T03:12:28.755Z,99.90
2023-04-02T03:15:34.512Z,99.90
2023-04-02T03:18:07.242Z,99.90
2023-04-02T03:20:43.671Z,99.90
2023-04-02T03:23:20.517Z,99.90
2023-04-02T03:26:08.536Z,99.90
2023-04-02T03:28:41.534Z,99.90
2023-04-02T03:31:26.563Z,99.90
2023-04-02T03:34:01.437Z,99.90
2023-04-02T03:36:38.433Z,99.90
2023-04-02T03:39:10.231Z,99.90
2023-04-02T03:42:01.701Z,99.90
2023-04-02T03:44:39.043Z,99.90
2023-04-02T03:47:19.753Z,99.90
2023-04-02T03:50:04.987Z,99.90
2023-04-02T03:52:34.085Z,99.90
2023-04-02T03:55:02.733Z,99.90
2023-04-02T03:57:41.179Z,99.90
2023-04-02T04:00:20.847Z,99.90
2023-04-02T04:03:02.886Z,99.90
2023-04-02T04:05:34.625Z,99.90
2023-04-02T04:08:06.243Z,99.90
2023-04-02T04:10:34.769Z,99.90
2023-04-02T04:13:06.417Z,99.90
2023-04-02T04:15:36.021Z,99.90
2023-04-02T04:18:11.934Z,99.90
2023-04-02T04:21:01.164Z,99.90
2023-04-02T04:23:36.068Z,99.90
2023-04-02T04:26:09.800Z,99.90
2023-04-02T04:28:44.868Z,99.90
2023-04-02T04:31:18.192Z,99.90
2023-04-02T04:33:53.798Z,99.90
2023-04-02T04:36:31.029Z,99.90
2023-04-02T04:39:05.818Z,99.90
2023-04-02T04:41:36.732Z,99.90
2023-04-02T04:44:39.160Z,99.90
2023-04-02T04:47:18.699Z,99.90
2023-04-02T04:49:53.281Z,99.90
2023-04-02T04:52:30.048Z,99.90
2023-04-02T04:54:57.149Z,99.90
2023-04-02T04:57:34.288Z,99.90
2023-04-02T05:00:19.644Z,99.90
2023-04-02T05:03:06.887Z,99.90
2023-04-02T05:05:38.814Z,99.90
2023-04-02T05:08:19.829Z,99.90
2023-04-02T05:10:52.289Z,99.90
2023-04-02T05:13:28.389Z,99.90
2023-04-02T05:16:17.943Z,99.90
2023-04-02T05:18:52.409Z,99.90
2023-04-02T05:21:29.184Z,99.90
2023-04-02T05:24:32.714Z,99.90
2023-04-02T05:27:05.563Z,99.90
2023-04-02T05:29:37.187Z,99.90
2023-04-02T05:32:13.998Z,99.90
2023-04-02T05:34:46.323Z,99.90
2023-04-02T05:37:26.696Z,99.90
2023-04-02T05:39:56.877Z,99.90
2023-04-02T05:42:32.516Z,99.90
2023-04-02T05:45:22.606Z,99.90
2023-04-02T05:47:52.295Z,99.90
2023-04-02T05:50:25.377Z,99.90
2023-04-02T05:52:57.968Z,99.90
2023-04-02T05:55:32.113Z,99.90
2023-04-02T05:58:29.643Z,99.90
2023-04-02T06:00:57.454Z,99.90
2023-04-02T06:03:44.800Z,99.90
2023-04-02T06:06:31.960Z,99.90
2023-04-02T06:09:05.744Z,99.90
2023-04-02T06:11:42.188Z,99.90
2023-04-02T06:14:12.982Z,99.90
2023-04-02T06:16:40.445Z,99.90
2023-04-02T06:19:14.988Z,99.90
2023-04-02T06:21:51.031Z,99.90
2023-04-02T06:24:24.375Z,99.90
2023-04-02T06:26:59.893Z,99.90
2023-04-02T06:29:40.133Z,99.90
2023-04-02T06:32:09.153Z,99.90
2023-04-02T06:34:39.872Z,99.90
2023-04-02T06:37:31.903Z,99.90
2023-04-02T06:40:00.753Z,99.90
2023-04-02T06:42:41.325Z,99.90
2023-04-02T06:45:18.949Z,99.90
2023-04-02T06:47:50.415Z,99.90
2023-04-02T06:50:31.570Z,99.90
2023-04-02T06:53:06.427Z,99.90
2023-04-02T06:55:56.875Z,99.90
2023-04-02T06:58:23.547Z,99.90
2023-04-02T07:00:51.231Z,99.90
2023-04-02T07:03:34.245Z,99.90
2023-04-02T07:06:03.895Z,99.90
2023-04-02T07:08:30.857Z,99.90
2023-04-02T07:10:57.769Z,99.90
2023-04-02T07:13:25.725Z,99.90
2023-04-02T07:15:54.785Z,99.90
2023-04-02T07:18:24.118Z,99.90
2023-04-02T07:20:52.192Z,99.90
2023-04-02T07:23:21.143Z,99.90
2023-04-02T07:25:53.247Z,99.90
2023-04-02T07:28:22.418Z,99.90
2023-04-02T07:30:51.119Z,99.90
2023-04-02T07:33:21.152Z,99.80
2023-04-02T07:35:49.198Z,99.50
2023-04-02T07:38:16.502Z,99.50
2023-04-02T07:40:43.623Z,99.50
2023-04-02T07:43:10.765Z,99.60
2023-04-02T07:45:38.007Z,99.30
2023-04-02T07:48:06.952Z,98.70
2023-04-02T07:50:34.079Z,97.90
2023-04-02T07:53:01.387Z,98.00
2023-04-02T07:55:28.335Z,97.70
2023-04-02T07:58:00.014Z,97.40
2023-04-02T08:00:29.067Z,97.30
2023-04-02T08:02:56.206Z,97.50
2023-04-02T08:05:23.056Z,97.40
2023-04-02T08:07:55.528Z,97.00
2023-04-02T08:10:23.309Z,96.60
2023-04-02T08:12:50.802Z,96.30
2023-04-02T08:15:18.533Z,96.20
2023-04-02T08:17:47.253Z,96.10
2023-04-02T08:20:22.861Z,95.80
2023-04-02T08:22:52.185Z,95.90
2023-04-02T08:25:19.585Z,95.50
2023-04-02T08:27:52.016Z,95.40
2023-04-02T08:30:31.549Z,95.10
2023-04-02T08:33:04.495Z,94.40
2023-04-02T08:35:32.135Z,94.80
2023-04-02T08:38:00.755Z,94.80
2023-04-02T08:40:34.732Z,94.70
2023-04-02T08:43:13.812Z,94.50
2023-04-02T08:46:02.219Z,94.50
2023-04-02T08:48:32.690Z,93.70
2023-04-02T08:51:02.667Z,93.70
2023-04-02T08:53:36.382Z,93.10
2023-04-02T08:56:21.347Z,93.10
2023-04-02T08:58:56.453Z,92.80
2023-04-02T09:01:35.152Z,92.20
2023-04-02T09:04:05.588Z,91.50
2023-04-02T09:06:34.762Z,92.00
2023-04-02T09:09:01.623Z,91.50
2023-04-02T09:11:42.307Z,91.00
2023-04-02T09:14:21.717Z,90.70
2023-04-02T09:16:59.146Z,90.70
2023-04-02T09:19:34.960Z,90.30
2023-04-02T09:22:29.657Z,86.80
2023-04-02T09:24:59.094Z,87.80
2023-04-02T09:27:29.524Z,87.40
2023-04-02T09:30:18.249Z,87.20
2023-04-02T09:32:49.938Z,87.00
2023-04-02T09:35:26.658Z,86.30
2023-04-02T09:38:18.380Z,86.00
2023-04-02T09:40:54.197Z,84.00
2023-04-02T09:43:24.409Z,83.40
2023-04-02T09:46:03.694Z,82.80
2023-04-02T09:48:43.961Z,82.10
2023-04-02T09:51:18.273Z,81.50
2023-04-02T09:53:50.027Z,81.60
2023-04-02T09:56:18.472Z,81.90
2023-04-02T09:58:46.032Z,80.80
2023-04-02T10:01:27.844Z,80.00
2023-04-02T10:03:55.340Z,79.00
2023-04-02T10:06:22.536Z,80.00
2023-04-02T10:08:49.238Z,80.00
2023-04-02T10:11:30.932Z,79.30
2023-04-02T10:14:05.932Z,78.70
2023-04-02T10:16:40.712Z,78.20
2023-04-02T10:19:21.566Z,77.20
2023-04-02T10:21:52.231Z,76.00
2023-04-02T10:24:19.285Z,76.90
2023-04-02T10:27:11.396Z,76.00
2023-04-02T10:30:05.448Z,74.20
2023-04-02T10:33:03.409Z,74.60
2023-04-02T10:35:52.024Z,75.60
2023-04-02T10:38:38.829Z,75.20
2023-04-02T10:41:37.498Z,75.60
2023-04-02T10:44:25.519Z,76.30
2023-04-02T10:47:07.966Z,75.60
2023-04-02T10:50:01.363Z,75.80
2023-04-02T10:52:34.239Z,75.70
2023-04-02T10:55:18.284Z,75.80
2023-04-02T10:57:46.416Z,73.90
2023-04-02T11:00:15.883Z,72.80
2023-04-02T11:02:57.592Z,73.90
2023-04-02T11:05:44.914Z,73.70
2023-04-02T11:08:22.476Z,73.20
2023-04-02T11:11:03.369Z,73.00
2023-04-02T11:13:53.971Z,72.40
2023-04-02T11:16:21.510Z,71.70
2023-04-02T11:19:17.620Z,72.60
2023-04-02T11:21:59.438Z,72.60
2023-04-02T11:24:31.633Z,72.70
2023-04-02T11:27:07.372Z,72.80
2023-04-02T11:29:42.320Z,71.90
2023-04-02T11:32:25.227Z,71.20
2023-04-02T11:35:05.974Z,71.60
2023-04-02T11:37:35.507Z,71.40
2023-04-02T11:40:08.445Z,71.40
2023-04-02T11:42:36.740Z,72.00
2023-04-02T11:45:24.400Z,71.20
2023-04-02T11:48:08.381Z,71.90
2023-04-02T11:50:41.439Z,71.20
2023-04-02T11:53:14.798Z,71.40
2023-04-02T11:56:05.771Z,71.90
2023-04-02T11:58:59.364Z,72.10
2023-04-02T12:01:44.263Z,71.60
2023-04-02T12:04:44.339Z,71.10
2023-04-02T12:07:34.939Z,70.60
2023-04-02T12:10:22.589Z,69.80
2023-04-02T12:12:50.580Z,70.20
2023-04-02T12:15:32.459Z,70.10
2023-04-02T12:18:21.439Z,70.40
2023-04-02T12:20:55.061Z,70.00
2023-04-02T12:23:32.184Z,70.30
2023-04-02T12:26:06.502Z,69.80
2023-04-02T12:28:34.551Z,68.60
2023-04-02T12:31:14.888Z,69.10
2023-04-02T12:33:42.487Z,69.30
2023-04-02T12:36:14.136Z,68.00
2023-04-02T12:38:53.327Z,68.70
2023-04-02T12:41:38.365Z,68.60
2023-04-02T12:44:13.548Z,67.70
2023-04-02T12:46:40.662Z,68.10
2023-04-02T12:49:25.302Z,67.70
2023-04-02T12:51:52.949Z,68.10
2023-04-02T12:54:23.191Z,68.30
2023-04-02T12:56:51.076Z,68.30
2023-04-02T12:59:34.894Z,67.80
2023-04-02T13:02:03.941Z,67.50
2023-04-02T13:04:31.385Z,67.80
2023-04-02T13:06:58.475Z,67.70
2023-04-02T13:09:35.818Z,67.70
2023-04-02T13:12:03.912Z,67.40
2023-04-02T13:14:31.287Z,67.30
2023-04-02T13:16:57.949Z,67.60
2023-04-02T13:19:33.349Z,66.50
2023-04-02T13:22:02.136Z,66.10
2023-04-02T13:24:33.110Z,65.90
2023-04-02T13:27:02.163Z,65.50
2023-04-02T13:29:36.416Z,65.40
2023-04-02T13:32:05.682Z,64.10
2023-04-02T13:34:32.633Z,64.80
2023-04-02T13:36:59.642Z,64.80
2023-04-02T13:39:27.191Z,64.50
2023-04-02T13:41:56.928Z,65.10
2023-04-02T13:44:30.025Z,65.40
2023-04-02T13:46:58.015Z,65.00
2023-04-02T13:49:25.556Z,64.50
2023-04-02T13:52:03.126Z,65.10
2023-04-02T13:54:37.242Z,65.20
2023-04-02T13:57:04.199Z,64.70
2023-04-02T13:59:31.415Z,64.10
2023-04-02T14:02:05.588Z,64.00
2023-04-02T14:04:38.242Z,63.80
2023-04-02T14:07:32.857Z,64.30
2023-04-02T14:10:04.203Z,63.50
2023-04-02T14:12:52.681Z,63.60
2023-04-02T14:15:38.312Z,63.60
2023-04-02T14:18:29.364Z,63.70
2023-04-02T14:21:18.396Z,63.70
2023-04-02T14:24:16.244Z,63.20
2023-04-02T14:27:03.058Z,63.00
2023-04-02T14:29:44.844Z,63.90
2023-04-02T14:32:36.144Z,64.50
2023-04-02T14:35:28.612Z,64.50
2023-04-02T14:38:01.466Z,64.30
2023-04-02T14:40:51.544Z,64.80
2023-04-02T14:43:25.306Z,64.50
2023-04-02T14:45:55.056Z,63.70
2023-04-02T14:48:27.542Z,64.20
2023-04-02T14:51:04.977Z,63.50
2023-04-02T14:53:53.840Z,63.10
2023-04-02T14:56:24.085Z,63.50
2023-04-02T15:01:34.060Z,64.10
2023-04-02T15:04:21.320Z,63.70
2023-04-02T15:06:53.160Z,63.30
2023-04-02T15:09:32.230Z,62.40
2023-04-02T15:12:24.891Z,62.90
2023-04-02T15:14:58.300Z,63.20
2023-04-02T15:17:25.198Z,63.70
2023-04-02T15:20:02.324Z,64.20
2023-04-02T15:22:47.683Z,63.60
2023-04-02T15:25:31.935Z,63.40
2023-04-02T15:28:09.584Z,63.70
2023-04-02T15:30:42.809Z,64.10
2023-04-02T15:33:28.153Z,63.90
2023-04-02T15:35:54.791Z,64.00
2023-04-02T15:38:31.141Z,64.40
2023-04-02T15:41:04.085Z,63.60
2023-04-02T15:43:39.174Z,63.70
2023-04-02T15:46:12.044Z,63.20
2023-04-02T15:48:51.414Z,63.40
2023-04-02T15:51:50.080Z,63.40
2023-04-02T15:54:27.138Z,62.10
2023-04-02T15:57:34.090Z,63.00
2023-04-02T16:00:31.172Z,63.10
2023-04-02T16:03:24.998Z,63.50
2023-04-02T16:06:06.799Z,63.60
2023-04-02T16:08:47.939Z,64.20
2023-04-02T16:11:15.359Z,63.20
2023-04-02T16:13:43.712Z,63.80
2023-04-02T16:16:34.632Z,64.10
2023-04-02T16:19:17.192Z,63.30
2023-04-02T16:21:51.777Z,62.90
2023-04-02T16:24:18.519Z,63.50
2023-04-02T16:26:57.583Z,63.90
2023-04-02T16:29:38.000Z,64.40
2023-04-02T16:32:14.085Z,64.70
2023-04-02T16:35:12.979Z,64.20
2023-04-02T16:38:12.157Z,64.00
2023-04-02T16:41:27.099Z,64.70
2023-04-02T16:43:57.127Z,65.20
2023-04-02T16:47:24.512Z,65.40
2023-04-02T16:49:59.780Z,64.80
2023-04-02T16:52:57.988Z,65.30
2023-04-02T16:55:48.633Z,65.80
2023-04-02T16:58:38.342Z,66.30
2023-04-02T17:01:31.510Z,66.30
2023-04-02T17:04:06.672Z,66.70
2023-04-02T17:07:03.003Z,67.30
2023-04-02T17:09:35.904Z,67.70
2023-04-02T17:12:16.299Z,68.10
2023-04-02T17:15:28.327Z,68.50
2023-04-02T17:17:58.667Z,69.80
2023-04-02T17:20:26.461Z,70.20
2023-04-02T17:22:54.239Z,69.50
2023-04-02T17:25:47.713Z,68.40
2023-04-02T17:28:25.183Z,67.80
2023-04-02T17:30:58.673Z,66.60
2023-04-02T17:33:27.103Z,66.30
2023-04-02T17:35:59.939Z,65.60
2023-04-02T17:38:43.451Z,65.40
2023-04-02T17:41:13.165Z,64.80
2023-04-02T17:44:08.550Z,64.60
2023-04-02T17:46:52.533Z,65.10
2023-04-02T17:49:31.292Z,65.80
2023-04-02T17:52:23.734Z,66.50
2023-04-02T17:55:02.695Z,67.10
2023-04-02T17:57:35.773Z,67.70
2023-04-02T18:00:21.263Z,68.20
2023-04-02T18:03:00.307Z,68.80
2023-04-02T18:05:43.920Z,70.20
2023-04-02T18:08:35.303Z,69.80
2023-04-02T18:11:18.549Z,70.60
2023-04-02T18:14:20.259Z,71.20
2023-04-02T18:16:53.594Z,71.70
2023-04-02T18:19:34.446Z,71.90
2023-04-02T18:22:41.326Z,72.30
2023-04-02T18:25:18.376Z,72.90
2023-04-02T18:27:57.005Z,73.20
2023-04-02T18:30:35.155Z,73.60
2023-04-02T18:33:24.178Z,74.10
2023-04-02T18:36:05.158Z,74.40
2023-04-02T18:38:46.386Z,74.70
2023-04-02T18:41:47.669Z,74.90
2023-04-02T18:44:36.441Z,75.40
2023-04-02T18:47:21.495Z,75.50
2023-04-02T18:50:10.991Z,76.20
2023-04-02T18:52:39.587Z,76.50
2023-04-02T18:55:14.876Z,76.80
2023-04-02T18:57:45.051Z,76.60
2023-04-02T19:00:29.753Z,76.70
2023-04-02T19:03:22.925Z,77.10
2023-04-02T19:06:06.111Z,77.40
2023-04-02T19:08:35.961Z,77.80
2023-04-02T19:11:16.116Z,78.10
2023-04-02T19:13:44.979Z,79.00
2023-04-02T19:16:17.860Z,79.00
2023-04-02T19:18:55.700Z,78.90
2023-04-02T19:21:31.398Z,79.30
2023-04-02T19:24:26.246Z,79.70
2023-04-02T19:27:01.117Z,80.10
2023-04-02T19:29:58.731Z,80.00
2023-04-02T19:32:44.232Z,80.50
2023-04-02T19:35:46.600Z,80.40
2023-04-02T19:39:00.129Z,81.10
2023-04-02T19:41:35.589Z,81.00
2023-04-02T19:44:02.771Z,81.00
2023-04-02T19:46:29.553Z,81.30
2023-04-02T19:49:17.060Z,81.60
2023-04-02T19:51:44.136Z,81.90
2023-04-02T19:54:11.009Z,82.00
2023-04-02T19:56:38.215Z,82.20
2023-04-02T19:59:17.241Z,82.40
2023-04-02T20:01:44.717Z,82.80
2023-04-02T20:04:11.482Z,83.10
2023-04-02T20:06:38.213Z,83.40
2023-04-02T20:09:04.904Z,83.50
2023-04-02T20:11:31.609Z,83.90
2023-04-02T20:13:58.423Z,84.30
2023-04-02T20:16:25.215Z,84.30
2023-04-02T20:18:51.998Z,84.40
2023-04-02T20:21:19.033Z,84.40
2023-04-02T20:23:45.734Z,84.90
2023-04-02T20:26:12.717Z,84.60
2023-04-02T20:28:39.895Z,85.50
2023-04-02T20:31:13.253Z,84.60
2023-04-02T20:33:40.232Z,85.20
2023-04-02T20:36:15.933Z,85.60
2023-04-02T20:38:43.427Z,86.30
2023-04-02T20:41:10.858Z,86.20
2023-04-02T20:43:44.693Z,86.20
2023-04-02T20:46:12.731Z,86.50
2023-04-02T20:48:39.952Z,86.30
2023-04-02T20:51:08.471Z,86.30
2023-04-02T20:53:36.870Z,86.40
2023-04-02T20:56:06.564Z,86.40
2023-04-02T20:58:35.032Z,86.70
2023-04-02T21:01:13.259Z,86.80
2023-04-02T21:03:40.139Z,87.60
2023-04-02T21:06:13.008Z,87.30
2023-04-02T21:08:40.125Z,87.60
2023-04-02T21:11:07.511Z,87.40
2023-04-02T21:13:38.274Z,87.60
2023-04-02T21:16:30.132Z,87.60
2023-04-02T21:18:58.656Z,88.10
2023-04-02T21:21:26.208Z,87.80
2023-04-02T21:23:59.370Z,88.00
2023-04-02T21:26:27.444Z,88.40
2023-04-02T21:28:55.276Z,89.00
2023-04-02T21:31:28.073Z,89.10
2023-04-02T21:33:57.308Z,89.40
2023-04-02T21:36:28.183Z,89.80
2023-04-02T21:38:57.731Z,90.00
2023-04-02T21:41:30.370Z,90.20
2023-04-02T21:43:58.278Z,90.10
2023-04-02T21:46:28.039Z,90.20
2023-04-02T21:48:56.418Z,90.40
2023-04-02T21:51:26.140Z,90.50
2023-04-02T21:53:56.003Z,90.70
2023-04-02T21:56:30.944Z,90.70
2023-04-02T21:58:58.688Z,91.10
2023-04-02T22:01:30.110Z,91.20
2023-04-02T22:03:58.942Z,91.20
2023-04-02T22:06:28.317Z,91.00
2023-04-02T22:09:01.020Z,91.00
2023-04-02T22:11:31.602Z,91.10
2023-04-02T22:13:58.819Z,91.10
2023-04-02T22:16:28.813Z,91.00
2023-04-02T22:18:57.446Z,91.00
2023-04-02T22:21:25.473Z,91.10
2023-04-02T22:23:53.176Z,91.20
2023-04-02T22:26:23.021Z,91.40
2023-04-02T22:28:52.431Z,91.40
2023-04-02T22:31:22.451Z,91.30
2023-04-02T22:33:50.522Z,91.30
2023-04-02T22:36:18.857Z,91.40
2023-04-02T22:38:45.949Z,91.60
2023-04-02T22:41:18.476Z,91.50
2023-04-02T22:43:46.278Z,91.50
2023-04-02T22:46:15.962Z,91.50
2023-04-02T22:48:44.140Z,91.80
2023-04-02T22:51:12.716Z,91.80
2023-04-02T22:53:39.809Z,91.80
2023-04-02T22:56:15.463Z,92.10
2023-04-02T22:58:42.554Z,92.10
2023-04-02T23:01:11.857Z,92.10
2023-04-02T23:03:39.007Z,92.10
2023-04-02T23:06:08.866Z,92.10
2023-04-02T23:08:36.806Z,92.20
2023-04-02T23:11:23.905Z,92.20
2023-04-02T23:13:52.851Z,92.40
2023-04-02T23:16:20.657Z,92.70
2023-04-02T23:18:48.441Z,92.70
2023-04-02T23:21:16.369Z,92.70
2023-04-02T23:23:43.242Z,93.00
2023-04-02T23:26:13.837Z,92.80
2023-04-02T23:28:40.973Z,93.00
2023-04-02T23:31:11.540Z,93.10
2023-04-02T23:33:38.347Z,93.30
2023-04-02T23:36:10.524Z,93.50
2023-04-02T23:38:37.252Z,93.90
2023-04-02T23:41:04.110Z,93.80
2023-04-02T23:43:31.225Z,93.70
2023-04-02T23:45:58.127Z,93.60
2023-04-02T23:48:24.837Z,93.70
2023-04-02T23:50:51.494Z,93.50
2023-04-02T23:53:18.797Z,93.70
2023-04-02T23:55:45.914Z,93.90
2023-04-02T23:58:12.641Z,94.00
